• Join FlightAware (Why Join?)
  • Login
  • US Flag 
01:22AM EDT


 

Airport Tracker/Info


-or-


 

Live Flight TrackerFlight Track Log ✈ JBU24 ✈ 07-May-2013 ✈ KJFK - KSYR

Flight Track Log - Related Links

Times and Time Zones

All times are in EDT time to prevent confusion due to time zone crossing. See the JBU24 flight status page for this flight to view local times or setup timezone preferences in your user account.

Time Position Orientation Groundspeed Altitude Reporting Facility
EDT Latitude Longitude Course Direction KTS MPH feet Rate Location/Type
05:16PM 40.6167 -73.7500 316° Northwest 158 182 1,700  Level New York TRACON
05:17PM 40.6333 -73.7000 66° East 216 249 3,600 2,520 Climbing New York TRACON
05:18PM 40.8213 -74.0237 311° West  Level FlightAware Approximate
05:18PM 40.6833 -73.6167 52° Northeast 264 304 6,800  Level New York TRACON
05:19PM 40.8815 -74.1138 311° West  Level FlightAware Approximate
05:19PM 40.7500 -73.5500 37° Northeast 294 338 9,900  Level New York TRACON
05:20PM 40.9437 -74.2014 316° Northwest  Level FlightAware Approximate
05:20PM 40.8500 -73.5333 North 335 386 11,900  Level New York TRACON
05:21PM 41.0090 -74.2853 316° Northwest  Level FlightAware Approximate
05:21PM 40.9167 -73.6167 317° Northwest 365 420 14,400  Level New York TRACON
05:22PM 40.9833 -73.7333 307° West 381 438 16,800 900 Climbing New York TRACON
05:24PM 41.0536 -73.9711 291° West 411 473 17,000  Climbing New York Center
05:25PM 41.0936 -74.1106 291° West 411 473 16,900 -60 Descending New York Center
05:26PM 41.1353 -74.2533 291° West 411 473 16,900  Level New York Center
05:27PM 41.1747 -74.3931 291° West 416 479 16,900 780 Level New York Center
05:28PM 41.2122 -74.5275 290° West 408 470 18,500 1,620 Climbing New York Center
05:29PM 41.2686 -74.6492 302° West 393 452 20,300 1,740 Climbing New York Center
05:30PM 41.3339 -74.7553 309° West 404 465 22,000 840 Climbing New York Center
05:31PM 41.4069 -74.8731 310° West 416 479 22,000  Level New York Center
05:32PM 41.4797 -74.9936 309° West 416 479 22,000  Level New York Center
05:33PM 41.5506 -75.1119 309° West 416 479 22,000  Level New York Center
05:34PM 41.6231 -75.2303 309° West 416 479 22,000  Level New York Center
05:35PM 41.6956 -75.3517 309° West 411 473 22,000  Level New York Center
05:36PM 41.7678 -75.4736 308° West 411 473 22,000  Level New York Center
05:37PM 41.8400 -75.5928 309° West 411 473 22,000  Level New York Center
05:38PM 41.9100 -75.7122 308° West 411 473 22,000 -300 Level New York Center
05:39PM 41.9800 -75.8344 308° West 411 473 21,400 -660 Descending New York Center
05:40PM 42.0494 -75.9572 307° West 411 473 20,700 -1,620 Descending New York Center
05:41PM 42.1172 -76.0717 309° West 411 473 18,300 -2,040 Descending New York Center
05:42PM 42.2167 -76.1328 336° Northwest 397 457 16,800 -1,980 Descending New York Center
05:43PM 42.3256 -76.1192 North 367 422 14,400 -2,340 Descending New York Center
05:43PM 42.3867 -76.1144 North 370 426 13,400 -1,920 Descending Boston Center
05:45PM 42.5103 -76.0992 North 339 390 11,000 -1,080 Descending Boston Center
05:46PM 42.6025 -76.0878 North 322 371 10,900 -900 Descending Boston Center
05:47PM 42.6817 -76.0839 North 288 331 9,300 -1,500 Descending Boston Center
05:48PM 42.7644 -76.1056 349° North 289 333 7,900 -1,500 Descending Boston Center
05:49PM 42.8408 -76.1244 350° North 283 326 6,300 -1,440 Descending Boston Center
05:50PM 42.9153 -76.1458 348° North 280 322 5,000 -1,200 Descending Boston Center
05:51PM 42.9931 -76.1875 339° North 275 316 4,000 -600 Descending Boston Center
05:52PM 43.0628 -76.2286 337° Northwest 273 314 3,800 -600 Descending Boston Center
05:53PM 43.1369 -76.2561 345° North 267 307 2,800 -840 Descending Boston Center
05:54PM 43.1817 -76.2219 29° Northeast 229 264 2,300 -720 Descending Boston Center
05:55PM 43.1544 -76.1689 125° Southeast 164 189 1,500 -840 Descending Boston Center